Salinas, CA (93907)

6:57 PM PDT on October 31, 2014 (GMT -0700)
Prunedale | Change Station
CLOSE
Current Station
Personal Weather Station
Location: Salinas, CA
Elevation: 236 ft
Nearby Weather Stations

Elev 236 ft 36.81 °N, 121.68 °W | Updated 3 seconds ago

Rain
Rain
55.6 °F
Feels Like 55.6 °F
N
0.0
Wind Variable Wind from SSE
Gusts 0.0 mph

Today
High -- | Low -- °F
--% Chance of Precip.
Yesterday
High -- | Low -- °F
Precip. -- in
7:29 AM 6:10 PM
First Quarter, 61% visible
Pressure 29.78 in
Visibility 4.0 miles
Clouds Few 800 ft
Scattered Clouds 1800 ft
Overcast 6000 ft
Dew Point 54 °F
Humidity 96%
Rainfall 0.11 in
Snow Depth Not available.
UV 0.0 out of 12
Pollen .50 out of 12
Air Quality Not available.
Flu Activity Not available.
SPECI KSNS 010148Z 21004KT 4SM RA BR FEW008 SCT018 OVC060 14/13 A2978 RMK AO2 P0006

More Conditions Fewer Conditions

Pressure 29.78 in
Visibility 4.0 miles
Clouds Few 800 ft
Scattered Clouds 1800 ft
Overcast 6000 ft
Dew Point 54 °F
Humidity 96%
Rainfall 0.11 in
Snow Depth Not available.
UV 0.0 out of 12
Pollen .50 out of 12
Air Quality Not available.
Flu Activity Not available.
SPECI KSNS 010148Z 21004KT 4SM RA BR FEW008 SCT018 OVC060 14/13 A2978 RMK AO2 P0006

More Conditions Fewer Conditions

10-Day Weather Forecast

Almanac

Astronomy

Oct. 31, 2014 Rise Set
Actual Time
Civil Twilight
Nautical Twilight
Astronomical Twilight
Moon
Length of Visible Light
Length of Day
Tomorrow will be .
, % of the Moon is Illuminated

Today's Extremes

State Highs State Lows

Community

WunderPhotos

Upload Photos

1,766,810 photos uploaded!

WunderBlogs® & News

Nearby

Air Quality

  Air Quality AQ Index Pollutant
Not available.

Snow Depth

Station Depth Elevation

Earthquake Activity

City Distance Mag. Time & Date
Minimum magnitude displayed is 2.5.

Coastal Water Temperatures

Place Temperature

Nearby Weather Stations